Time;durP1;ratioP1;P1;durP2;ratioP2;P2;SDS_P1;SDS_P2;PMS_P1;PMS_P2;Temp;Humidity;BMP_temperature;BMP_pressure;BME280_temperature;BME280_humidity;BME280_pressure;Samples;Min_cycle;Max_cycle;Signal;HPM_P1;HPM_P2
2022/08/08 00:00:10;;;;;;;6.40;3.10;;;;;;;22.75;58.25;98356.19;4502532;31;20156;-77
2022/08/08 00:03:29;;;;;;;7.10;2.87;;;;;;;22.16;61.35;98341.16;4502518;31;20092;-76
2022/08/08 00:06:07;;;;;;;5.97;3.10;;;;;;;21.56;64.18;98347.94;4502783;31;20084;-76
2022/08/08 00:08:48;;;;;;;11.43;3.92;;;;;;;21.76;64.36;98350.72;4502380;31;20608;-76
2022/08/08 00:11:26;;;;;;;6.15;3.35;;;;;;;21.69;64.03;98339.06;4488466;31;20100;-76
2022/08/08 00:14:19;;;;;;;6.90;3.08;;;;;;;22.12;63.13;98344.22;4490243;31;20403;-77
2022/08/08 00:17:20;;;;;;;7.62;3.35;;;;;;;21.60;65.22;98341.50;4502378;31;20430;-76
2022/08/08 00:20:04;;;;;;;8.10;3.20;;;;;;;21.98;63.82;98336.59;4488599;31;20164;-77
2022/08/08 00:22:38;;;;;;;8.07;3.40;;;;;;;21.85;64.60;98336.81;4502019;31;20100;-77
2022/08/08 00:25:10;;;;;;;6.15;3.00;;;;;;;22.28;63.61;98333.19;4503537;31;20440;-77
2022/08/08 00:27:39;;;;;;;7.37;3.40;;;;;;;21.83;65.23;98336.94;4504505;31;20117;-77
2022/08/08 00:30:10;;;;;;;8.35;3.45;;;;;;;21.99;65.18;98340.91;4504495;31;20092;-76
2022/08/08 00:32:47;;;;;;;8.55;3.60;;;;;;;21.39;67.36;98343.28;4490735;31;20115;-76
2022/08/08 00:35:19;;;;;;;7.22;3.50;;;;;;;21.73;66.68;98345.72;4503957;31;20166;-76
2022/08/08 00:38:08;;;;;;;7.80;3.22;;;;;;;21.55;67.07;98340.22;4504266;31;20080;-76
2022/08/08 00:41:04;;;;;;;;;;;;;;;21.70;66.87;98346.81;4504731;31;20112;-77
2022/08/08 00:44:25;;;;;;;7.18;3.25;;;;;;;22.08;66.04;98350.66;4503910;31;20372;-76
2022/08/08 00:47:07;;;;;;;7.80;2.97;;;;;;;21.41;68.41;98354.47;4504257;31;20106;-76
2022/08/08 00:50:06;;;;;;;6.30;3.25;;;;;;;22.05;66.16;98353.53;4504110;31;20076;-76
2022/08/08 00:53:07;;;;;;;7.37;3.45;;;;;;;21.74;67.82;98347.41;4504217;31;20111;-76
2022/08/08 00:56:04;;;;;;;8.23;3.28;;;;;;;21.40;69.16;98334.44;4504148;31;20096;-76
2022/08/08 00:58:53;;;;;;;7.22;3.45;;;;;;;20.94;71.75;98325.03;4491070;31;20088;-76
2022/08/08 01:01:37;;;;;;;6.87;3.40;;;;;;;20.91;71.83;98324.44;4504207;31;20535;-76
2022/08/08 01:04:43;;;;;;;8.75;3.47;;;;;;;21.32;70.72;98342.09;4489425;31;20109;-77
2022/08/08 01:07:37;;;;;;;7.60;3.45;;;;;;;21.64;68.80;98332.41;4490282;31;20155;-76
2022/08/08 01:10:28;;;;;;;7.40;3.75;;;;;;;22.29;66.85;98329.59;4491835;31;20096;-76
2022/08/08 01:13:21;;;;;;;7.00;3.58;;;;;;;22.47;66.05;98328.03;4504141;31;20343;-77
2022/08/08 01:16:35;;;;;;;6.40;3.28;;;;;;;22.93;63.79;98326.63;4492452;31;20087;-77
2022/08/08 01:19:08;;;;;;;9.10;3.70;;;;;;;22.74;64.90;98322.13;4503770;31;20100;-77
2022/08/08 01:21:50;;;;;;;7.03;3.70;;;;;;;22.37;65.81;98314.84;4503772;31;20472;-77
2022/08/08 01:24:55;;;;;;;8.23;3.45;;;;;;;22.05;67.06;98322.81;4491451;31;20145;-77
2022/08/08 01:27:34;;;;;;;8.07;4.00;;;;;;;21.73;68.47;98325.56;4489867;31;20579;-77
2022/08/08 01:30:35;;;;;;;7.25;3.42;;;;;;;22.00;68.11;98318.91;4490926;31;20108;-77
2022/08/08 01:33:20;;;;;;;8.05;3.55;;;;;;;22.48;65.90;98330.50;4503837;31;20167;-77
2022/08/08 01:36:23;;;;;;;8.98;3.97;;;;;;;22.57;65.56;98328.06;4503208;31;20088;-77
2022/08/08 01:39:23;;;;;;;7.57;3.67;;;;;;;22.73;64.01;98323.91;4503623;31;20093;-77
2022/08/08 01:42:05;;;;;;;8.30;3.65;;;;;;;23.74;60.86;98324.56;4503905;31;20104;-77
2022/08/08 01:45:05;;;;;;;8.50;3.55;;;;;;;24.02;59.34;98328.94;4503775;31;20092;-77
2022/08/08 01:47:53;;;;;;;8.00;3.72;;;;;;;22.71;64.16;98328.50;4490586;31;20128;-77
2022/08/08 01:51:25;;;;;;;7.05;3.50;;;;;;;22.78;63.51;98324.37;4491874;31;20363;-77
2022/08/08 01:54:31;;;;;;;7.18;3.67;;;;;;;23.17;62.92;98323.59;4503515;31;20096;-77
2022/08/08 01:58:00;;;;;;;7.97;3.62;;;;;;;23.92;59.80;98331.59;4503855;31;20100;-77
2022/08/08 02:01:03;;;;;;;8.00;3.87;;;;;;;23.88;59.03;98324.13;4503355;31;20076;-77
2022/08/08 02:03:47;;;;;;;7.20;3.75;;;;;;;25.01;55.77;98327.41;4503615;31;20107;-77
2022/08/08 02:06:59;;;;;;;8.20;3.50;;;;;;;24.14;57.99;98317.25;4503356;31;20100;-77
2022/08/08 02:09:51;;;;;;;7.12;3.55;;;;;;;25.63;53.23;98328.28;4465478;31;20095;-77
2022/08/08 02:12:52;;;;;;;7.10;3.55;;;;;;;26.73;49.79;98329.44;4503593;31;20483;-77
2022/08/08 02:15:26;;;;;;;7.28;3.25;;;;;;;27.79;46.55;98329.59;4503654;31;20111;-77
2022/08/08 02:18:09;;;;;;;7.85;3.83;;;;;;;27.96;45.94;98331.22;4503708;31;20164;-77
2022/08/08 02:23:52;;;;;;;5.57;3.15;;;;;;;28.08;45.53;98334.34;4480777;31;20080;-77
2022/08/08 02:26:31;;;;;;;7.47;3.70;;;;;;;27.36;47.19;98337.69;4489432;31;20155;-77
2022/08/08 02:29:25;;;;;;;7.00;3.67;;;;;;;27.03;48.31;98328.06;4489226;31;20172;-77
2022/08/08 02:32:28;;;;;;;7.97;3.70;;;;;;;26.79;48.99;98320.81;4503524;31;20088;-77
2022/08/08 02:35:02;;;;;;;7.28;3.35;;;;;;;26.06;50.77;98313.41;4503027;31;20092;-77
2022/08/08 02:38:11;;;;;;;8.23;3.58;;;;;;;26.79;48.64;98316.34;4503520;31;20112;-77
2022/08/08 02:40:48;;;;;;;6.75;3.28;;;;;;;26.46;49.79;98318.06;4503355;31;20103;-77
2022/08/08 02:43:42;;;;;;;10.45;3.50;;;;;;;26.07;49.88;98309.78;4503045;31;20096;-78
2022/08/08 02:46:29;;;;;;;7.05;3.33;;;;;;;24.68;54.58;98310.38;4503559;31;20141;-77
2022/08/08 02:49:14;;;;;;;7.43;3.45;;;;;;;25.11;53.41;98310.69;4502961;31;20140;-77
2022/08/08 02:52:33;;;;;;;6.85;3.50;;;;;;;25.72;51.91;98309.84;4503313;31;20100;-77
2022/08/08 02:55:21;;;;;;;7.30;3.53;;;;;;;26.30;50.27;98319.81;4434570;31;20132;-77
2022/08/08 02:58:09;;;;;;;7.20;3.62;;;;;;;27.62;47.75;98331.37;4503395;31;20339;-77
2022/08/08 03:00:46;;;;;;;7.85;3.67;;;;;;;26.93;49.52;98328.16;4503432;31;20096;-78
2022/08/08 03:03:39;;;;;;;7.62;3.60;;;;;;;26.48;49.87;98333.81;4502972;31;20163;-78
2022/08/08 03:06:37;;;;;;;8.18;4.10;;;;;;;26.88;48.60;98325.16;4503193;31;20092;-77
2022/08/08 03:09:59;;;;;;;9.07;3.60;;;;;;;26.79;48.75;98332.25;4489189;31;20102;-77
2022/08/08 03:12:36;;;;;;;8.50;3.67;;;;;;;27.51;46.97;98340.50;4503245;31;20397;-77
2022/08/08 03:16:02;;;;;;;7.12;3.53;;;;;;;27.67;46.44;98342.38;4491452;31;20088;-78
2022/08/08 03:18:50;;;;;;;6.62;3.33;;;;;;;27.73;45.93;98341.69;4423121;32;20147;-77
2022/08/08 03:21:17;;;;;;;7.30;3.67;;;;;;;27.94;45.18;98349.13;4410845;32;20081;-78
2022/08/08 03:23:52;;;;;;;8.07;3.97;;;;;;;27.84;45.97;98349.28;4477097;31;20378;-77
2022/08/08 03:26:30;;;;;;;9.73;3.78;;;;;;;27.60;46.91;98354.59;4503133;31;20092;-78
2022/08/08 03:29:11;;;;;;;8.02;3.70;;;;;;;27.64;46.86;98359.38;4490345;31;20084;-77
2022/08/08 03:34:34;;;;;;;9.68;3.58;;;;;;;27.27;47.23;98357.22;4503155;31;20100;-78
2022/08/08 03:37:16;;;;;;;8.75;4.20;;;;;;;26.58;50.73;98358.31;4502973;31;20438;-78
2022/08/08 03:40:04;;;;;;;7.93;3.85;;;;;;;27.37;48.87;98355.25;4502891;31;20080;-77
2022/08/08 03:42:31;;;;;;;7.45;3.83;;;;;;;27.23;48.98;98358.53;4502967;31;20123;-78
2022/08/08 03:44:58;;;;;;;6.40;3.28;;;;;;;27.94;45.92;98365.03;4502449;31;20568;-78
2022/08/08 03:47:27;;;;;;;8.50;3.90;;;;;;;27.67;46.83;98361.75;4502995;31;20546;-77
2022/08/08 03:50:18;;;;;;;7.57;3.85;;;;;;;27.31;47.95;98366.47;4502935;31;20136;-78
2022/08/08 03:52:52;;;;;;;8.75;3.90;;;;;;;26.28;50.48;98357.00;4502541;31;20080;-78
2022/08/08 03:55:21;;;;;;;7.35;3.58;;;;;;;27.05;48.51;98363.97;4502702;31;20096;-78
2022/08/08 03:58:09;;;;;;;7.35;3.90;;;;;;;27.98;46.83;98369.03;4502878;31;20213;-77
2022/08/08 04:00:56;;;;;;;6.95;3.28;;;;;;;27.78;46.71;98373.84;4502400;31;20498;-77
2022/08/08 04:03:48;;;;;;;8.43;4.07;;;;;;;27.56;47.31;98377.13;4502725;31;20102;-78
2022/08/08 04:06:28;;;;;;;8.52;3.92;;;;;;;27.28;48.41;98366.81;4502271;31;20092;-78
2022/08/08 04:08:57;;;;;;;9.68;3.87;;;;;;;26.96;49.07;98366.72;4502705;31;20084;-77
2022/08/08 04:11:41;;;;;;;6.45;3.37;;;;;;;27.95;46.49;98367.50;4502709;31;20092;-77
2022/08/08 04:14:27;;;;;;;7.93;4.20;;;;;;;27.48;47.35;98370.00;4502375;31;20084;-77
2022/08/08 04:17:03;;;;;;;7.70;3.60;;;;;;;27.43;47.57;98374.09;4502644;31;20534;-77
2022/08/08 04:19:41;;;;;;;7.53;3.72;;;;;;;27.00;48.97;98381.28;4502426;31;20110;-77
2022/08/08 04:22:08;;;;;;;7.62;3.90;;;;;;;27.49;48.23;98382.25;4502234;31;20130;-77
2022/08/08 04:24:35;;;;;;;7.65;3.70;;;;;;;26.88;50.18;98385.22;4502250;31;20147;-77
2022/08/08 04:27:06;;;;;;;7.20;3.72;;;;;;;26.76;50.41;98387.34;4502076;31;20119;-77
2022/08/08 04:29:52;;;;;;;8.32;3.97;;;;;;;26.77;50.01;98381.88;4502289;31;20106;-77
2022/08/08 04:32:39;;;;;;;6.93;3.50;;;;;;;26.90;49.56;98380.59;4502209;31;20460;-77
2022/08/08 04:35:13;;;;;;;6.20;3.30;;;;;;;27.50;47.26;98393.66;4502058;31;20108;-77
2022/08/08 04:37:40;;;;;;;8.48;3.65;;;;;;;27.45;46.74;98398.66;4502319;31;20152;-77
2022/08/08 04:40:08;;;;;;;7.32;3.58;;;;;;;26.96;48.44;98398.50;4502312;31;20115;-77
2022/08/08 04:42:38;;;;;;;7.00;3.62;;;;;;;26.91;49.29;98403.44;4501883;31;20164;-77
2022/08/08 04:45:24;;;;;;;7.45;3.53;;;;;;;26.56;50.70;98396.50;4490035;31;20131;-77
2022/08/08 04:47:52;;;;;;;8.07;3.35;;;;;;;26.84;49.87;98402.44;4501884;31;20472;-77
2022/08/08 04:50:20;;;;;;;8.38;3.85;;;;;;;27.15;49.08;98411.50;4502181;31;20110;-77
2022/08/08 04:52:55;;;;;;;6.62;3.40;;;;;;;27.16;48.54;98399.91;4502014;31;20084;-77
2022/08/08 04:55:31;;;;;;;7.65;3.40;;;;;;;27.27;47.72;98402.25;4501535;31;20460;-77
2022/08/08 04:58:18;;;;;;;7.05;3.33;;;;;;;27.07;47.90;98404.34;4501891;31;20149;-78
2022/08/08 05:00:47;;;;;;;7.50;3.67;;;;;;;27.83;45.80;98405.16;4501885;31;20156;-78
2022/08/08 05:03:15;;;;;;;6.68;3.30;;;;;;;28.15;44.76;98407.78;4501557;31;20102;-78
2022/08/08 05:06:03;;;;;;;5.47;3.20;;;;;;;27.54;45.96;98405.59;4501797;31;20157;-79
2022/08/08 05:08:40;;;;;;;;;;;;;;;28.17;44.82;98403.13;4501894;31;20707;-79
2022/08/08 05:11:12;;;;;;;6.20;3.10;;;;;;;28.40;43.49;98408.59;4488982;31;19994;-79
2022/08/08 05:13:50;;;;;;;6.18;3.45;;;;;;;28.85;42.05;98414.25;4504053;31;20145;-79
2022/08/08 05:16:28;;;;;;;7.78;3.20;;;;;;;28.67;42.91;98409.16;4503835;31;20106;-79
2022/08/08 05:19:15;;;;;;;10.80;3.42;;;;;;;29.06;41.70;98399.41;4492236;31;20149;-78
2022/08/08 05:22:05;;;;;;;6.15;3.28;;;;;;;28.60;43.17;98403.69;4503902;31;20532;-79
2022/08/08 05:24:33;;;;;;;9.20;3.85;;;;;;;29.18;42.03;98397.19;4503680;31;20107;-79
2022/08/08 05:27:03;;;;;;;8.48;3.65;;;;;;;29.54;41.60;98402.78;4504046;31;20102;-79
2022/08/08 05:29:30;;;;;;;7.85;3.67;;;;;;;30.05;40.56;98404.84;4503661;31;20095;-79
2022/08/08 05:32:02;;;;;;;7.65;2.92;;;;;;;30.26;40.37;98405.00;4503993;31;20104;-79
2022/08/08 05:34:41;;;;;;;6.12;2.97;;;;;;;30.92;38.65;98405.12;4503951;31;20144;-79
2022/08/08 05:37:11;;;;;;;9.02;3.05;;;;;;;30.37;39.68;98409.06;4503609;31;20143;-79
2022/08/08 05:39:50;;;;;;;7.72;3.55;;;;;;;31.12;38.16;98410.69;4503913;31;20104;-79
2022/08/08 05:42:23;;;;;;;7.65;3.22;;;;;;;31.40;37.85;98405.50;4503871;31;20114;-79
2022/08/08 05:44:52;;;;;;;5.65;2.80;;;;;;;31.51;37.42;98408.47;4489367;31;20100;-79
2022/08/08 05:47:20;;;;;;;6.43;3.10;;;;;;;31.53;37.11;98410.97;4489623;31;20173;-79
2022/08/08 05:49:47;;;;;;;8.98;3.42;;;;;;;30.94;37.88;98405.75;4503815;31;20435;-79
2022/08/08 05:52:20;;;;;;;5.55;3.08;;;;;;;31.41;36.79;98417.81;4503535;31;20108;-79
2022/08/08 05:54:57;;;;;;;5.97;3.00;;;;;;;30.98;37.78;98423.03;4503778;31;20123;-82
2022/08/08 05:57:35;;;;;;;5.93;2.80;;;;;;;31.55;36.89;98417.75;4503539;31;20108;-79
2022/08/08 06:00:23;;;;;;;7.68;2.90;;;;;;;31.72;36.13;98423.66;4503653;31;20141;-78
2022/08/08 06:03:12;;;;;;;7.50;2.90;;;;;;;31.43;36.21;98421.09;4489557;31;20112;-78
2022/08/08 06:05:59;;;;;;;5.85;2.70;;;;;;;31.15;35.20;98421.78;4503295;31;20080;-79
2022/08/08 06:08:50;;;;;;;4.80;2.70;;;;;;;30.23;37.33;98413.38;4490226;31;20075;-79
2022/08/08 06:11:21;;;;;;;5.30;3.15;;;;;;;30.51;36.95;98425.03;4503662;31;20118;-78
2022/08/08 06:13:54;;;;;;;9.68;2.58;;;;;;;30.90;36.57;98429.28;4503761;31;20760;-77
2022/08/08 06:16:21;;;;;;;9.05;2.92;;;;;;;30.01;38.31;98419.53;4503689;31;20144;-77
2022/08/08 06:18:56;;;;;;;5.93;2.60;;;;;;;28.30;41.63;98429.19;4503343;31;20124;-77
2022/08/08 06:21:23;;;;;;;6.80;3.28;;;;;;;29.91;38.22;98423.28;4488919;31;20118;-77
2022/08/08 06:24:00;;;;;;;8.65;2.90;;;;;;;29.99;38.56;98433.03;4490204;31;20108;-77
2022/08/08 06:26:36;;;;;;;7.28;4.15;;;;;;;30.01;38.26;98438.16;4503361;31;20080;-77
2022/08/08 06:29:14;;;;;;;4.55;2.60;;;;;;;30.03;37.82;98430.81;4503675;31;20124;-76
2022/08/08 06:32:03;;;;;;;4.78;2.55;;;;;;;29.14;39.24;98441.06;4491541;31;20511;-77
2022/08/08 06:34:45;;;;;;;5.68;2.40;;;;;;;29.55;39.00;98425.69;4503294;31;20092;-77
2022/08/08 06:37:35;;;;;;;7.25;3.00;;;;;;;29.36;38.80;98428.81;4503627;31;20100;-76
2022/08/08 06:40:06;;;;;;;4.57;2.42;;;;;;;28.74;40.04;98429.56;4503099;31;20077;-77
2022/08/08 06:43:06;;;;;;;5.10;2.60;;;;;;;28.12;40.55;98425.84;4490298;31;20099;-76
2022/08/08 06:45:37;;;;;;;6.43;2.90;;;;;;;28.05;40.64;98428.34;4503218;31;20092;-78
2022/08/08 06:48:05;;;;;;;5.12;2.45;;;;;;;29.47;37.86;98431.06;4503093;31;20094;-79
2022/08/08 06:50:35;;;;;;;5.35;2.40;;;;;;;28.54;39.36;98428.28;4503280;31;20156;-80
2022/08/08 06:53:07;;;;;;;4.70;2.60;;;;;;;28.27;40.26;98429.47;4503311;31;20438;-79
2022/08/08 06:55:44;;;;;;;7.97;2.55;;;;;;;27.89;40.97;98431.00;4502949;31;20131;-79
2022/08/08 06:58:28;;;;;;;5.55;2.47;;;;;;;28.51;39.96;98426.81;4503372;31;20530;-79
2022/08/08 07:01:00;;;;;;;5.65;2.50;;;;;;;30.28;36.52;98440.25;4502865;31;20152;-79
2022/08/08 07:03:55;;;;;;;6.43;2.20;;;;;;;29.20;38.24;98434.19;4503090;31;20412;-79
2022/08/08 07:06:45;;;;;;;3.55;2.00;;;;;;;28.28;39.80;98440.94;4491191;31;20088;-79
2022/08/08 07:09:15;;;;;;;5.82;2.28;;;;;;;28.34;38.94;98440.28;4502865;31;20092;-79
2022/08/08 07:11:49;;;;;;;4.25;2.15;;;;;;;28.60;38.91;98450.66;4503222;31;20105;-79
2022/08/08 07:14:28;;;;;;;10.00;3.45;;;;;;;28.56;38.13;98444.88;4503022;31;20763;-80
2022/08/08 07:17:03;;;;;;;4.05;2.08;;;;;;;29.92;36.46;98448.03;4502843;31;20138;-79
2022/08/08 07:19:45;;;;;;;4.65;2.30;;;;;;;29.40;37.46;98446.03;4490185;31;20088;-80
2022/08/08 07:22:16;;;;;;;4.40;2.33;;;;;;;30.13;36.17;98450.88;4488310;31;20105;-78
2022/08/08 07:24:58;;;;;;;5.32;2.58;;;;;;;30.19;36.85;98452.81;4502858;31;20092;-78
2022/08/08 07:27:26;;;;;;;3.97;2.40;;;;;;;30.79;34.89;98457.22;4503099;31;20397;-79
2022/08/08 07:30:13;;;;;;;;;;;;;;;30.75;35.08;98457.78;4503082;31;20097;-79
2022/08/08 07:32:52;;;;;;;8.75;2.50;;;;;;;30.54;35.89;98461.13;4502968;31;19963;-79
2022/08/08 07:35:20;;;;;;;10.95;3.53;;;;;;;30.39;36.17;98466.44;4487421;31;20108;-79
2022/08/08 07:37:50;;;;;;;5.53;3.28;;;;;;;30.80;35.52;98466.84;4502623;31;20092;-79
2022/08/08 07:40:36;;;;;;;4.37;2.30;;;;;;;30.29;36.17;98457.06;4490983;31;20106;-79
2022/08/08 07:43:06;;;;;;;4.85;2.60;;;;;;;31.17;34.80;98467.75;4502596;31;20088;-79
2022/08/08 07:45:36;;;;;;;7.15;2.60;;;;;;;31.55;34.53;98472.94;4502700;31;20148;-79
2022/08/08 07:48:23;;;;;;;4.62;2.50;;;;;;;30.72;35.57;98471.44;4503020;31;20129;-79
2022/08/08 07:50:57;;;;;;;6.10;2.35;;;;;;;29.83;36.54;98460.56;4502437;31;20115;-79
2022/08/08 07:53:31;;;;;;;6.65;2.37;;;;;;;28.88;38.32;98462.56;4488828;31;20582;-79
2022/08/08 07:56:19;;;;;;;5.43;2.75;;;;;;;28.77;39.17;98460.25;4502783;31;20096;-78
2022/08/08 07:59:09;;;;;;;5.62;2.78;;;;;;;28.55;39.38;98461.81;4490348;31;20404;-79
2022/08/08 08:01:45;;;;;;;6.62;2.37;;;;;;;28.33;39.50;98463.34;4488870;31;20438;-79
2022/08/08 08:04:33;;;;;;;6.32;2.55;;;;;;;28.61;39.40;98461.13;4502688;31;20106;-78
2022/08/08 08:07:07;;;;;;;4.97;2.50;;;;;;;28.78;38.26;98465.38;4489276;31;20119;-79
2022/08/08 08:09:39;;;;;;;7.12;2.72;;;;;;;28.54;39.10;98468.09;4488587;31;20104;-79
2022/08/08 08:12:08;;;;;;;6.53;2.62;;;;;;;29.08;38.60;98471.78;4488006;31;20100;-79
2022/08/08 08:14:48;;;;;;;5.82;2.80;;;;;;;29.69;37.44;98463.19;4496084;31;20971;-79
2022/08/08 08:17:18;;;;;;;5.87;2.37;;;;;;;29.19;38.69;98469.75;4485485;31;20153;-78
2022/08/08 08:19:56;;;;;;;6.00;2.70;;;;;;;29.05;38.81;98461.50;4485447;31;20148;-77
2022/08/08 08:22:23;;;;;;;7.50;2.40;;;;;;;29.21;38.28;98473.06;4485569;31;20358;-78
2022/08/08 08:24:59;;;;;;;5.87;2.92;;;;;;;28.52;39.88;98475.41;4484377;31;20142;-78
2022/08/08 08:27:35;;;;;;;5.65;2.37;;;;;;;28.87;39.41;98468.84;4486004;31;20100;-77
2022/08/08 08:30:34;;;;;;;;;;;;;;;;;;;;;
2022/08/08 08:33:06;;;;;;;6.55;2.95;;;;;;;28.60;39.77;98485.16;4485540;32;20514;-78
2022/08/08 08:35:38;;;;;;;4.53;2.20;;;;;;;28.87;39.87;98490.09;4483475;32;20084;-78
2022/08/08 08:38:26;;;;;;;4.03;2.50;;;;;;;28.00;40.18;98499.63;4485637;31;20084;-78
2022/08/08 08:40:53;;;;;;;4.78;2.67;;;;;;;27.04;42.90;98492.06;4485307;31;20514;-78
2022/08/08 08:43:23;;;;;;;6.65;2.90;;;;;;;27.32;43.62;98497.13;4484555;32;20469;-79
2022/08/08 08:45:55;;;;;;;7.80;2.92;;;;;;;28.07;42.14;98508.56;4484204;32;20076;-78
2022/08/08 08:48:23;;;;;;;7.90;3.17;;;;;;;27.95;42.54;98515.19;4487883;31;20096;-77
2022/08/08 08:50:53;;;;;;;7.00;3.35;;;;;;;28.17;42.96;98519.00;4486585;32;20125;-77
2022/08/08 08:53:21;;;;;;;6.90;3.33;;;;;;;27.85;44.49;98525.13;4485801;32;20848;-78
2022/08/08 08:56:10;;;;;;;10.02;4.00;;;;;;;26.64;48.10;98531.53;4486687;31;20755;-77
2022/08/08 08:58:44;;;;;;;9.48;3.80;;;;;;;26.55;49.09;98535.91;4487540;31;20088;-77
2022/08/08 09:01:29;;;;;;;8.98;3.65;;;;;;;25.87;51.48;98535.66;4483228;32;20108;-77
2022/08/08 09:04:14;;;;;;;7.15;3.85;;;;;;;25.87;51.21;98540.94;4485856;31;20097;-78
2022/08/08 09:07:01;;;;;;;9.38;3.53;;;;;;;25.31;52.74;98537.50;4485486;32;20072;-77
2022/08/08 09:09:39;;;;;;;8.45;3.70;;;;;;;24.97;54.74;98537.16;4488188;31;20119;-78
2022/08/08 09:12:16;;;;;;;7.75;3.83;;;;;;;24.84;55.31;98533.19;4488164;31;20092;-79
2022/08/08 09:14:46;;;;;;;9.32;4.30;;;;;;;24.21;58.27;98523.97;4487862;31;20092;-78
2022/08/08 09:17:15;;;;;;;9.40;4.15;;;;;;;23.48;61.88;98532.31;4486931;32;20435;-78
2022/08/08 09:19:46;;;;;;;10.18;4.28;;;;;;;23.64;62.35;98536.16;4486985;32;20100;-77
2022/08/08 09:22:34;;;;;;;7.93;3.97;;;;;;;23.31;64.70;98552.25;4487262;31;20484;-76
2022/08/08 09:25:03;;;;;;;9.50;4.35;;;;;;;22.59;68.32;98544.38;4486806;32;20092;-77
2022/08/08 09:27:30;;;;;;;7.43;4.00;;;;;;;22.36;70.37;98543.69;4488045;31;20080;-78
2022/08/08 09:30:17;;;;;;;11.12;4.07;;;;;;;22.47;69.40;98548.88;4475979;32;20145;-78
2022/08/08 09:32:56;;;;;;;8.60;4.40;;;;;;;23.31;65.78;98553.09;4488078;32;20171;-78
2022/08/08 09:35:45;;;;;;;9.60;4.10;;;;;;;22.90;67.60;98559.28;4486582;32;20118;-78
2022/08/08 09:38:34;;;;;;;8.57;4.40;;;;;;;23.38;65.19;98554.19;4488098;31;20126;-77
2022/08/08 09:41:39;;;;;;;8.35;4.18;;;;;;;23.28;65.00;98552.50;4487867;31;20517;-77
2022/08/08 09:44:44;;;;;;;8.15;4.05;;;;;;;23.94;62.33;98550.22;4487636;32;20110;-77
2022/08/08 09:47:13;;;;;;;12.73;9.63;;;;;;;23.66;62.93;98555.28;4487786;31;20163;-77
2022/08/08 09:50:22;;;;;;;7.97;3.85;;;;;;;23.60;64.58;98544.44;4487808;31;20084;-77
2022/08/08 09:52:53;;;;;;;7.97;3.83;;;;;;;23.94;62.51;98537.03;4487938;31;20100;-77
2022/08/08 09:55:41;;;;;;;8.15;3.70;;;;;;;24.25;60.85;98532.44;4487668;31;20514;-78
2022/08/08 09:58:35;;;;;;;9.13;3.78;;;;;;;25.24;57.13;98539.06;4486302;32;20128;-78
2022/08/08 10:01:10;;;;;;;8.73;3.60;;;;;;;25.85;54.56;98535.81;4487825;31;20093;-78
2022/08/08 10:03:59;;;;;;;9.13;3.40;;;;;;;26.21;53.21;98533.97;4486615;32;20489;-77
2022/08/08 10:06:30;;;;;;;8.23;3.25;;;;;;;25.92;54.63;98522.81;4487628;31;20156;-78
2022/08/08 10:08:58;;;;;;;7.87;3.92;;;;;;;25.88;53.94;98522.28;4487881;31;20434;-77
2022/08/08 10:11:26;;;;;;;8.45;3.65;;;;;;;26.37;52.47;98516.59;4487258;31;20151;-77
2022/08/08 10:14:13;;;;;;;8.63;3.35;;;;;;;27.02;50.28;98519.72;4487524;31;20092;-76
2022/08/08 10:17:09;;;;;;;7.82;3.20;;;;;;;27.53;49.74;98520.53;4487524;31;20092;-77
2022/08/08 10:19:58;;;;;;;7.12;3.17;;;;;;;27.20;49.35;98519.59;4487723;31;20092;-77
2022/08/08 10:22:27;;;;;;;6.68;3.15;;;;;;;26.90;49.98;98512.97;4487251;31;20393;-77
2022/08/08 10:25:03;;;;;;;6.97;3.15;;;;;;;27.16;47.93;98511.16;4487306;31;20435;-77
2022/08/08 10:27:40;;;;;;;7.62;3.30;;;;;;;26.38;49.92;98516.47;4487801;32;20142;-77
2022/08/08 10:30:09;;;;;;;8.25;3.50;;;;;;;26.06;51.22;98514.34;4486665;32;20088;-77
2022/08/08 10:32:58;;;;;;;7.15;3.67;;;;;;;26.62;49.27;98526.38;4486488;32;20102;-77
2022/08/08 10:35:31;;;;;;;7.37;3.47;;;;;;;25.03;53.94;98520.78;4487495;31;20481;-77
2022/08/08 10:38:18;;;;;;;7.28;3.45;;;;;;;25.97;51.86;98522.37;4487183;31;20355;-77
2022/08/08 10:40:50;;;;;;;8.80;3.40;;;;;;;25.99;51.39;98518.59;4487490;31;20155;-77
2022/08/08 10:43:17;;;;;;;9.65;3.47;;;;;;;26.18;51.78;98525.53;4487552;31;20065;-77
2022/08/08 10:45:50;;;;;;;8.63;3.65;;;;;;;25.82;51.48;98519.41;4487321;31;20084;-77
2022/08/08 10:48:39;;;;;;;9.40;3.62;;;;;;;24.18;56.72;98515.53;4487561;31;20104;-77
2022/08/08 10:51:29;;;;;;;6.45;3.20;;;;;;;25.04;54.77;98529.53;4486608;32;20121;-77
2022/08/08 10:54:19;;;;;;;8.93;4.45;;;;;;;25.84;52.05;98514.78;4487098;31;20136;-78
2022/08/08 10:57:07;;;;;;;7.18;3.42;;;;;;;24.92;54.99;98520.13;4486426;32;20451;-78
2022/08/08 10:59:34;;;;;;;9.85;3.47;;;;;;;24.26;57.49;98520.94;4486137;32;20115;-77
2022/08/08 11:02:07;;;;;;;7.05;3.30;;;;;;;24.82;55.93;98528.06;4487454;31;20084;-77
2022/08/08 11:04:44;;;;;;;10.07;3.37;;;;;;;24.66;55.90;98522.53;4487251;31;20068;-77
2022/08/08 11:07:40;;;;;;;7.45;3.40;;;;;;;24.84;56.06;98528.75;4487228;31;20097;-77
2022/08/08 11:10:27;;;;;;;14.48;3.20;;;;;;;24.42;57.87;98525.66;4487301;31;20156;-77
2022/08/08 11:12:59;;;;;;;8.70;3.45;;;;;;;24.66;57.31;98527.81;4487277;31;20553;-77
2022/08/08 11:15:48;;;;;;;6.22;3.22;;;;;;;24.59;58.53;98532.03;4486040;32;20081;-77
2022/08/08 11:18:28;;;;;;;6.68;3.58;;;;;;;25.13;56.30;98539.25;4486332;32;20104;-78
2022/08/08 11:20:56;;;;;;;7.20;3.53;;;;;;;25.27;56.02;98541.38;4487058;31;20097;-78
2022/08/08 11:23:25;;;;;;;8.45;3.70;;;;;;;25.81;54.19;98521.22;4472974;32;20091;-77
2022/08/08 11:26:01;;;;;;;7.68;3.33;;;;;;;24.98;55.34;98530.91;4486160;32;20107;-77
2022/08/08 11:28:33;;;;;;;5.25;2.97;;;;;;;25.17;54.43;98523.94;4485760;32;20164;-77
2022/08/08 11:31:04;;;;;;;7.18;3.22;;;;;;;25.44;54.23;98528.41;4487104;31;20121;-78
2022/08/08 11:33:36;;;;;;;8.90;3.75;;;;;;;25.13;54.01;98514.66;4485920;32;20088;-78
2022/08/08 11:36:23;;;;;;;6.55;2.97;;;;;;;25.02;55.13;98513.84;4485592;32;20141;-78
2022/08/08 11:38:55;;;;;;;6.25;2.80;;;;;;;25.68;52.54;98510.97;4485969;32;20171;-77
2022/08/08 11:41:26;;;;;;;7.40;2.90;;;;;;;25.64;51.99;98514.09;4486864;31;20122;-77
2022/08/08 11:43:59;;;;;;;;;;;;;;;25.16;52.82;98514.34;4487516;31;20088;-78
2022/08/08 11:46:27;;;;;;;7.75;2.97;;;;;;;25.39;51.67;98513.81;4486979;32;19980;-78
2022/08/08 11:49:01;;;;;;;4.53;2.83;;;;;;;25.10;53.05;98518.41;4486883;31;20181;-77
2022/08/08 11:51:31;;;;;;;7.35;3.45;;;;;;;25.45;51.91;98508.91;4487091;31;20168;-78
2022/08/08 11:54:16;;;;;;;6.40;2.80;;;;;;;25.97;49.88;98514.44;4485967;32;20149;-77
2022/08/08 11:57:18;;;;;;;7.87;3.00;;;;;;;26.58;48.43;98519.72;4486732;32;20493;-77
2022/08/08 11:59:56;;;;;;;6.30;2.80;;;;;;;26.43;48.02;98516.81;4487093;31;20104;-78
2022/08/08 12:02:29;;;;;;;12.43;2.87;;;;;;;26.42;48.36;98514.34;4486607;31;20104;-77
2022/08/08 12:05:01;;;;;;;6.12;2.87;;;;;;;26.16;49.22;98509.81;4486807;31;20168;-79
2022/08/08 12:07:28;;;;;;;8.13;3.28;;;;;;;25.57;50.37;98521.78;4485710;32;20107;-78
2022/08/08 12:10:08;;;;;;;6.82;2.92;;;;;;;26.52;48.51;98509.78;4472772;32;20153;-79
2022/08/08 12:12:43;;;;;;;6.50;2.90;;;;;;;26.47;48.84;98519.97;4485821;32;20104;-77
2022/08/08 12:15:34;;;;;;;;;;;;;;;25.56;50.06;98517.47;4486859;32;20143;-78
2022/08/08 12:18:17;;;;;;;6.05;2.87;;;;;;;26.13;48.56;98515.37;4485601;32;19983;-78
2022/08/08 12:20:50;;;;;;;5.25;2.70;;;;;;;25.91;49.01;98503.47;4483642;31;20153;-79
2022/08/08 12:23:33;;;;;;;5.18;2.70;;;;;;;26.88;47.34;98505.19;4485484;31;20102;-79
2022/08/08 12:26:22;;;;;;;5.55;2.60;;;;;;;26.76;47.14;98501.16;4486550;31;20468;-79
2022/08/08 12:29:18;;;;;;;7.18;2.90;;;;;;;27.35;46.52;98507.44;4485039;32;20118;-79
2022/08/08 12:31:47;;;;;;;5.72;2.90;;;;;;;27.35;46.26;98505.59;4484380;31;20119;-78
2022/08/08 12:34:50;;;;;;;8.25;4.15;;;;;;;26.53;47.45;98506.16;4483906;32;20108;-77
2022/08/08 12:37:25;;;;;;;6.62;3.22;;;;;;;26.78;47.64;98501.81;4484918;32;20092;-78
2022/08/08 12:40:16;;;;;;;6.35;2.72;;;;;;;27.07;47.58;98504.97;4485094;32;20129;-78
2022/08/08 12:42:50;;;;;;;6.90;2.90;;;;;;;28.40;44.19;98511.28;4484926;32;20144;-78
2022/08/08 12:45:18;;;;;;;6.37;2.97;;;;;;;27.87;45.61;98515.22;4485300;31;20099;-78
2022/08/08 12:48:21;;;;;;;;;;;;;;;27.31;45.85;98506.06;4486866;31;20101;-78